Terminal Aerodrome Forecast
Issued by NWS

Home | Current Version | Previous Version | Graphics & Text | Print | Product List | Glossary On
Versions: 1 2 3 4 5 6 7 8 9 10 11 12 13 14 15
000
FTUS43 KMPX 252300
TAFRWF
TAF
KRWF 252338Z 2600/2624 30010KT P6SM SCT100
     FM260200 30005KT P6SM SCT100 SCT250
     FM261500 36005KT P6SM SCT050 SCT250=

USA.gov is the U.S. government's official web portal to all federal, state and local government web resources and services.